sensor_id;sensor_type;location;lat;lon;timestamp;pressure;altitude;pressure_sealevel;temperature;humidity
5138;BME280;53959;53.626;11.410;2023-02-28T00:00:09;102613.16;;;-0.14;75.04
5138;BME280;53959;53.626;11.410;2023-02-28T00:02:37;102622.78;;;-0.13;74.99
5138;BME280;53959;53.626;11.410;2023-02-28T00:05:02;102614.31;;;-0.08;75.39
5138;BME280;53959;53.626;11.410;2023-02-28T00:07:28;102619.47;;;-0.09;75.27
5138;BME280;53959;53.626;11.410;2023-02-28T00:09:54;102622.56;;;-0.18;75.26
5138;BME280;53959;53.626;11.410;2023-02-28T00:12:19;102619.94;;;0.00;75.05
5138;BME280;53959;53.626;11.410;2023-02-28T00:14:45;102613.91;;;0.01;75.00
5138;BME280;53959;53.626;11.410;2023-02-28T00:17:10;102615.38;;;-0.04;75.33
5138;BME280;53959;53.626;11.410;2023-02-28T00:19:35;102616.50;;;0.01;74.96
5138;BME280;53959;53.626;11.410;2023-02-28T00:22:01;102621.63;;;0.17;74.55
5138;BME280;53959;53.626;11.410;2023-02-28T00:24:26;102621.16;;;-0.11;74.86
5138;BME280;53959;53.626;11.410;2023-02-28T00:26:52;102623.50;;;-0.16;74.92
5138;BME280;53959;53.626;11.410;2023-02-28T00:29:17;102619.94;;;0.00;75.18
5138;BME280;53959;53.626;11.410;2023-02-28T00:31:43;102627.84;;;-0.16;74.98
5138;BME280;53959;53.626;11.410;2023-02-28T00:34:10;102622.69;;;-0.33;75.55
5138;BME280;53959;53.626;11.410;2023-02-28T00:36:35;102625.31;;;-0.15;75.44
5138;BME280;53959;53.626;11.410;2023-02-28T00:39:03;102623.63;;;-0.31;75.42
5138;BME280;53959;53.626;11.410;2023-02-28T00:41:29;102619.97;;;-0.34;75.23
5138;BME280;53959;53.626;11.410;2023-02-28T00:43:54;102630.81;;;-0.44;75.66
5138;BME280;53959;53.626;11.410;2023-02-28T00:46:19;102625.53;;;-0.28;76.03
5138;BME280;53959;53.626;11.410;2023-02-28T00:48:45;102627.16;;;-0.12;75.42
5138;BME280;53959;53.626;11.410;2023-02-28T00:51:10;102632.38;;;-0.12;75.61
5138;BME280;53959;53.626;11.410;2023-02-28T00:53:36;102635.13;;;-0.27;75.58
5138;BME280;53959;53.626;11.410;2023-02-28T00:56:01;102633.97;;;-0.34;75.83
5138;BME280;53959;53.626;11.410;2023-02-28T00:58:27;102633.16;;;-0.49;75.44
5138;BME280;53959;53.626;11.410;2023-02-28T01:00:52;102627.94;;;-0.49;75.53
5138;BME280;53959;53.626;11.410;2023-02-28T01:03:20;102633.03;;;-0.52;75.94
5138;BME280;53959;53.626;11.410;2023-02-28T01:05:46;102636.19;;;-0.58;76.10
5138;BME280;53959;53.626;11.410;2023-02-28T01:08:12;102627.81;;;-0.52;76.64
5138;BME280;53959;53.626;11.410;2023-02-28T01:10:39;102632.03;;;-0.54;76.23
5138;BME280;53959;53.626;11.410;2023-02-28T01:13:05;102626.75;;;-0.56;76.21
5138;BME280;53959;53.626;11.410;2023-02-28T01:15:31;102632.53;;;-0.61;76.13
5138;BME280;53959;53.626;11.410;2023-02-28T01:17:57;102635.47;;;-0.55;75.69
5138;BME280;53959;53.626;11.410;2023-02-28T01:20:23;102627.16;;;-0.64;75.90
5138;BME280;53959;53.626;11.410;2023-02-28T01:22:48;102633.69;;;-0.73;75.92
5138;BME280;53959;53.626;11.410;2023-02-28T01:25:14;102638.75;;;-0.76;76.50
5138;BME280;53959;53.626;11.410;2023-02-28T01:27:39;102631.91;;;-0.74;75.97
5138;BME280;53959;53.626;11.410;2023-02-28T01:30:08;102632.25;;;-0.84;76.47
5138;BME280;53959;53.626;11.410;2023-02-28T01:32:35;102635.63;;;-0.86;76.62
5138;BME280;53959;53.626;11.410;2023-02-28T01:35:00;102637.47;;;-0.84;76.01
5138;BME280;53959;53.626;11.410;2023-02-28T01:37:25;102639.69;;;-0.75;75.33
5138;BME280;53959;53.626;11.410;2023-02-28T01:39:51;102642.38;;;-0.90;76.11
5138;BME280;53959;53.626;11.410;2023-02-28T01:42:19;102643.25;;;-0.73;76.43
5138;BME280;53959;53.626;11.410;2023-02-28T01:45:01;102638.75;;;-0.76;75.47
5138;BME280;53959;53.626;11.410;2023-02-28T01:47:36;102635.66;;;-0.68;76.26
5138;BME280;53959;53.626;11.410;2023-02-28T01:50:07;102633.97;;;-0.84;76.06
5138;BME280;53959;53.626;11.410;2023-02-28T01:52:34;102636.16;;;-0.92;76.59
5138;BME280;53959;53.626;11.410;2023-02-28T01:55:02;102636.16;;;-0.92;76.03
5138;BME280;53959;53.626;11.410;2023-02-28T01:57:33;102637.66;;;-0.97;76.46
5138;BME280;53959;53.626;11.410;2023-02-28T02:00:24;102634.69;;;-0.70;76.80
5138;BME280;53959;53.626;11.410;2023-02-28T02:02:54;102628.31;;;-0.76;76.60
5138;BME280;53959;53.626;11.410;2023-02-28T02:05:24;102633.19;;;-0.65;76.21
5138;BME280;53959;53.626;11.410;2023-02-28T02:07:54;102627.66;;;-0.71;76.92
5138;BME280;53959;53.626;11.410;2023-02-28T02:10:25;102627.72;;;-0.54;75.94
5138;BME280;53959;53.626;11.410;2023-02-28T02:15:45;102639.34;;;-0.81;75.65
5138;BME280;53959;53.626;11.410;2023-02-28T02:18:29;102631.75;;;-0.77;76.13
5138;BME280;53959;53.626;11.410;2023-02-28T02:26:37;102623.28;;;-0.89;76.27
5138;BME280;53959;53.626;11.410;2023-02-28T02:29:36;102623.44;;;-1.02;76.48
5138;BME280;53959;53.626;11.410;2023-02-28T02:37:38;102618.47;;;-0.81;76.07
5138;BME280;53959;53.626;11.410;2023-02-28T02:40:14;102625.91;;;-0.89;75.31
5138;BME280;53959;53.626;11.410;2023-02-28T02:45:17;102622.34;;;-1.24;76.79
5138;BME280;53959;53.626;11.410;2023-02-28T02:47:44;102619.25;;;-1.16;77.28
5138;BME280;53959;53.626;11.410;2023-02-28T02:50:24;102626.78;;;-1.21;77.24
5138;BME280;53959;53.626;11.410;2023-02-28T02:52:55;102631.53;;;-0.98;76.82
5138;BME280;53959;53.626;11.410;2023-02-28T02:55:23;102623.78;;;-0.96;76.63
5138;BME280;53959;53.626;11.410;2023-02-28T02:57:52;102623.94;;;-1.09;76.61
5138;BME280;53959;53.626;11.410;2023-02-28T03:00:23;102631.53;;;-1.14;76.52
5138;BME280;53959;53.626;11.410;2023-02-28T03:02:52;102627.59;;;-1.06;76.60
5138;BME280;53959;53.626;11.410;2023-02-28T03:05:34;102632.91;;;-0.88;76.17
5138;BME280;53959;53.626;11.410;2023-02-28T03:08:03;102625.25;;;-0.85;75.60
5138;BME280;53959;53.626;11.410;2023-02-28T03:10:42;102628.75;;;-0.84;75.62
5138;BME280;53959;53.626;11.410;2023-02-28T03:13:29;102631.84;;;-0.75;75.61
5138;BME280;53959;53.626;11.410;2023-02-28T03:22:31;102626.41;;;-0.96;75.48
5138;BME280;53959;53.626;11.410;2023-02-28T03:25:09;102630.41;;;-0.86;75.44
5138;BME280;53959;53.626;11.410;2023-02-28T03:27:42;102635.81;;;-0.65;75.81
5138;BME280;53959;53.626;11.410;2023-02-28T03:30:14;102638.91;;;-0.73;76.43
5138;BME280;53959;53.626;11.410;2023-02-28T03:32:55;102632.41;;;-1.13;76.00
5138;BME280;53959;53.626;11.410;2023-02-28T03:35:30;102633.06;;;-1.17;76.69
5138;BME280;53959;53.626;11.410;2023-02-28T03:38:19;102639.28;;;-0.99;76.29
5138;BME280;53959;53.626;11.410;2023-02-28T03:40:50;102629.91;;;-0.95;76.61
5138;BME280;53959;53.626;11.410;2023-02-28T03:43:23;102643.66;;;-0.98;76.43
5138;BME280;53959;53.626;11.410;2023-02-28T03:45:51;102639.19;;;-1.01;76.54
5138;BME280;53959;53.626;11.410;2023-02-28T03:48:25;102623.94;;;-0.93;76.11
5138;BME280;53959;53.626;11.410;2023-02-28T03:50:55;102627.63;;;-0.89;75.78
5138;BME280;53959;53.626;11.410;2023-02-28T03:53:33;102632.91;;;-0.88;75.78
5138;BME280;53959;53.626;11.410;2023-02-28T03:56:17;102631.03;;;-1.07;75.62
5138;BME280;53959;53.626;11.410;2023-02-28T03:59:04;102633.00;;;-1.35;75.97
5138;BME280;53959;53.626;11.410;2023-02-28T04:04:01;102628.91;;;-1.14;75.12
5138;BME280;53959;53.626;11.410;2023-02-28T04:06:27;102638.97;;;-1.05;74.81
5138;BME280;53959;53.626;11.410;2023-02-28T04:08:55;102629.84;;;-0.97;73.87
5138;BME280;53959;53.626;11.410;2023-02-28T04:11:34;102627.88;;;-1.01;74.25
5138;BME280;53959;53.626;11.410;2023-02-28T04:14:04;102628.84;;;-0.99;73.94
5138;BME280;53959;53.626;11.410;2023-02-28T04:16:34;102633.75;;;-1.05;74.05
5138;BME280;53959;53.626;11.410;2023-02-28T04:19:00;102632.91;;;-1.20;75.14
5138;BME280;53959;53.626;11.410;2023-02-28T04:21:35;102632.09;;;-1.36;75.63
5138;BME280;53959;53.626;11.410;2023-02-28T04:24:02;102630.13;;;-1.40;75.87
5138;BME280;53959;53.626;11.410;2023-02-28T04:26:36;102631.72;;;-1.27;76.09
5138;BME280;53959;53.626;11.410;2023-02-28T04:29:03;102633.72;;;-1.22;75.06
5138;BME280;53959;53.626;11.410;2023-02-28T04:31:29;102626.81;;;-1.05;74.18
5138;BME280;53959;53.626;11.410;2023-02-28T04:33:55;102633.88;;;-1.02;74.29
5138;BME280;53959;53.626;11.410;2023-02-28T04:36:20;102633.91;;;-1.18;73.78
5138;BME280;53959;53.626;11.410;2023-02-28T04:38:48;102631.53;;;-1.14;73.40
5138;BME280;53959;53.626;11.410;2023-02-28T04:41:13;102626.72;;;-1.06;74.21
5138;BME280;53959;53.626;11.410;2023-02-28T04:43:39;102626.06;;;-1.18;73.84
5138;BME280;53959;53.626;11.410;2023-02-28T04:46:05;102634.56;;;-1.23;73.66
5138;BME280;53959;53.626;11.410;2023-02-28T04:48:32;102634.56;;;-1.39;74.77
5138;BME280;53959;53.626;11.410;2023-02-28T04:51:06;102639.06;;;-1.51;75.87
5138;BME280;53959;53.626;11.410;2023-02-28T04:53:32;102637.88;;;-1.58;75.77
5138;BME280;53959;53.626;11.410;2023-02-28T04:55:58;102637.09;;;-1.72;76.28
5138;BME280;53959;53.626;11.410;2023-02-28T04:58:25;102644.91;;;-1.72;76.32
5138;BME280;53959;53.626;11.410;2023-02-28T05:00:53;102642.72;;;-1.64;76.42
5138;BME280;53959;53.626;11.410;2023-02-28T05:03:20;102645.53;;;-1.76;76.93
5138;BME280;53959;53.626;11.410;2023-02-28T05:05:48;102647.69;;;-1.68;76.56
5138;BME280;53959;53.626;11.410;2023-02-28T05:08:13;102640.47;;;-1.58;76.44
5138;BME280;53959;53.626;11.410;2023-02-28T05:10:39;102639.53;;;-1.58;76.24
5138;BME280;53959;53.626;11.410;2023-02-28T05:13:04;102644.44;;;-1.64;76.04
5138;BME280;53959;53.626;11.410;2023-02-28T05:15:29;102642.19;;;-1.42;76.43
5138;BME280;53959;53.626;11.410;2023-02-28T05:17:55;102642.47;;;-1.68;76.57
5138;BME280;53959;53.626;11.410;2023-02-28T05:20:20;102654.31;;;-1.74;76.85
5138;BME280;53959;53.626;11.410;2023-02-28T05:22:46;102651.56;;;-1.77;77.18
5138;BME280;53959;53.626;11.410;2023-02-28T05:25:15;102649.81;;;-1.61;77.48
5138;BME280;53959;53.626;11.410;2023-02-28T05:27:41;102643.75;;;-1.77;78.05
5138;BME280;53959;53.626;11.410;2023-02-28T05:30:07;102653.22;;;-1.62;76.69
5138;BME280;53959;53.626;11.410;2023-02-28T05:32:38;102650.53;;;-1.64;76.48
5138;BME280;53959;53.626;11.410;2023-02-28T05:35:04;102652.81;;;-1.85;76.88
5138;BME280;53959;53.626;11.410;2023-02-28T05:37:30;102651.97;;;-2.00;77.46
5138;BME280;53959;53.626;11.410;2023-02-28T05:39:55;102650.09;;;-2.03;77.91
5138;BME280;53959;53.626;11.410;2023-02-28T05:42:21;102650.63;;;-2.08;78.14
5138;BME280;53959;53.626;11.410;2023-02-28T05:44:46;102651.03;;;-1.86;78.02
5138;BME280;53959;53.626;11.410;2023-02-28T05:47:12;102652.25;;;-1.64;77.15
5138;BME280;53959;53.626;11.410;2023-02-28T05:49:41;102656.53;;;-1.50;75.71
5138;BME280;53959;53.626;11.410;2023-02-28T05:52:06;102659.50;;;-1.59;75.23
5138;BME280;53959;53.626;11.410;2023-02-28T05:54:31;102662.38;;;-1.54;75.62
5138;BME280;53959;53.626;11.410;2023-02-28T05:56:57;102668.03;;;-1.30;74.39
5138;BME280;53959;53.626;11.410;2023-02-28T05:59:22;102665.47;;;-1.45;74.54
5138;BME280;53959;53.626;11.410;2023-02-28T06:01:47;102668.50;;;-1.37;74.75
5138;BME280;53959;53.626;11.410;2023-02-28T06:04:14;102669.34;;;-1.38;74.71
5138;BME280;53959;53.626;11.410;2023-02-28T06:06:46;102666.94;;;-1.50;75.42
5138;BME280;53959;53.626;11.410;2023-02-28T06:09:12;102674.78;;;-1.50;74.59
5138;BME280;53959;53.626;11.410;2023-02-28T06:11:37;102677.91;;;-1.87;76.02
5138;BME280;53959;53.626;11.410;2023-02-28T06:14:03;102666.75;;;-1.84;76.01
5138;BME280;53959;53.626;11.410;2023-02-28T06:16:30;102678.72;;;-1.57;75.26
5138;BME280;53959;53.626;11.410;2023-02-28T06:19:00;102672.47;;;-1.44;74.01
5138;BME280;53959;53.626;11.410;2023-02-28T06:21:27;102674.63;;;-1.68;74.97
5138;BME280;53959;53.626;11.410;2023-02-28T06:23:53;102677.78;;;-1.74;75.49
5138;BME280;53959;53.626;11.410;2023-02-28T06:26:18;102673.59;;;-1.55;75.11
5138;BME280;53959;53.626;11.410;2023-02-28T06:28:44;102682.59;;;-1.34;74.74
5138;BME280;53959;53.626;11.410;2023-02-28T06:31:13;102679.81;;;-1.53;74.88
5138;BME280;53959;53.626;11.410;2023-02-28T06:33:39;102688.88;;;-1.47;75.17
5138;BME280;53959;53.626;11.410;2023-02-28T06:36:06;102684.50;;;-1.77;75.38
5138;BME280;53959;53.626;11.410;2023-02-28T06:38:32;102688.13;;;-1.75;75.90
5138;BME280;53959;53.626;11.410;2023-02-28T06:40:58;102687.88;;;-1.49;74.50
5138;BME280;53959;53.626;11.410;2023-02-28T06:43:25;102698.56;;;-1.44;73.75
5138;BME280;53959;53.626;11.410;2023-02-28T06:45:55;102697.22;;;-1.52;74.74
5138;BME280;53959;53.626;11.410;2023-02-28T06:48:21;102697.47;;;-1.48;75.41
5138;BME280;53959;53.626;11.410;2023-02-28T06:50:46;102690.56;;;-1.47;74.96
5138;BME280;53959;53.626;11.410;2023-02-28T06:53:12;102698.31;;;-1.49;75.02
5138;BME280;53959;53.626;11.410;2023-02-28T06:55:38;102704.13;;;-1.22;75.04
5138;BME280;53959;53.626;11.410;2023-02-28T06:58:04;102703.00;;;-1.27;74.44
5138;BME280;53959;53.626;11.410;2023-02-28T07:00:43;102699.88;;;-1.36;75.05
5138;BME280;53959;53.626;11.410;2023-02-28T07:03:10;102706.63;;;-1.39;75.42
5138;BME280;53959;53.626;11.410;2023-02-28T07:05:37;102712.09;;;-1.35;74.87
5138;BME280;53959;53.626;11.410;2023-02-28T07:08:03;102707.22;;;-1.29;75.46
5138;BME280;53959;53.626;11.410;2023-02-28T07:10:29;102713.19;;;-1.31;75.49
5138;BME280;53959;53.626;11.410;2023-02-28T07:12:55;102703.81;;;-1.28;75.42
5138;BME280;53959;53.626;11.410;2023-02-28T07:15:20;102706.25;;;-1.14;75.27
5138;BME280;53959;53.626;11.410;2023-02-28T07:17:45;102706.09;;;-1.17;74.66
5138;BME280;53959;53.626;11.410;2023-02-28T07:20:11;102708.88;;;-1.14;75.00
5138;BME280;53959;53.626;11.410;2023-02-28T07:22:37;102700.88;;;-1.17;75.14
5138;BME280;53959;53.626;11.410;2023-02-28T07:25:04;102710.41;;;-1.18;75.75
5138;BME280;53959;53.626;11.410;2023-02-28T07:27:29;102708.06;;;-1.13;75.71
5138;BME280;53959;53.626;11.410;2023-02-28T07:29:55;102712.72;;;-1.08;75.87
5138;BME280;53959;53.626;11.410;2023-02-28T07:32:21;102708.63;;;-1.03;75.82
5138;BME280;53959;53.626;11.410;2023-02-28T07:34:47;102710.84;;;-1.10;75.81
5138;BME280;53959;53.626;11.410;2023-02-28T07:37:14;102711.41;;;-1.00;75.72
5138;BME280;53959;53.626;11.410;2023-02-28T07:39:40;102713.19;;;-0.99;75.37
5138;BME280;53959;53.626;11.410;2023-02-28T07:42:07;102717.63;;;-0.98;75.11
5138;BME280;53959;53.626;11.410;2023-02-28T07:44:35;102716.41;;;-0.88;75.07
5138;BME280;53959;53.626;11.410;2023-02-28T07:47:08;102715.19;;;-0.78;74.05
5138;BME280;53959;53.626;11.410;2023-02-28T07:49:35;102720.31;;;-0.63;73.70
5138;BME280;53959;53.626;11.410;2023-02-28T07:52:02;102718.41;;;-0.50;73.30
5138;BME280;53959;53.626;11.410;2023-02-28T07:54:28;102718.78;;;-0.60;74.00
5138;BME280;53959;53.626;11.410;2023-02-28T07:56:53;102721.34;;;-0.43;73.47
5138;BME280;53959;53.626;11.410;2023-02-28T07:59:19;102723.53;;;-0.35;73.42
5138;BME280;53959;53.626;11.410;2023-02-28T08:01:44;102719.75;;;-0.23;72.58
5138;BME280;53959;53.626;11.410;2023-02-28T08:04:09;102716.47;;;-0.19;72.36
5138;BME280;53959;53.626;11.410;2023-02-28T08:06:35;102725.31;;;-0.17;71.83
5138;BME280;53959;53.626;11.410;2023-02-28T08:09:00;102727.41;;;-0.10;71.49
5138;BME280;53959;53.626;11.410;2023-02-28T08:11:25;102718.31;;;-0.18;71.28
5138;BME280;53959;53.626;11.410;2023-02-28T08:13:51;102717.25;;;-0.04;71.48
5138;BME280;53959;53.626;11.410;2023-02-28T08:16:16;102723.41;;;-0.04;71.65
5138;BME280;53959;53.626;11.410;2023-02-28T08:18:47;102717.19;;;-0.06;71.46
5138;BME280;53959;53.626;11.410;2023-02-28T08:21:12;102721.47;;;0.10;70.98
5138;BME280;53959;53.626;11.410;2023-02-28T08:23:38;102713.47;;;0.25;71.31
5138;BME280;53959;53.626;11.410;2023-02-28T08:26:04;102710.19;;;0.29;70.60
5138;BME280;53959;53.626;11.410;2023-02-28T08:28:29;102716.25;;;0.46;70.42
5138;BME280;53959;53.626;11.410;2023-02-28T08:30:55;102709.34;;;0.66;72.17
5138;BME280;53959;53.626;11.410;2023-02-28T08:33:20;102714.75;;;0.69;70.59
5138;BME280;53959;53.626;11.410;2023-02-28T08:35:46;102716.19;;;0.82;70.82
5138;BME280;53959;53.626;11.410;2023-02-28T08:38:11;102720.06;;;0.90;70.74
5138;BME280;53959;53.626;11.410;2023-02-28T08:40:36;102717.72;;;0.77;70.74
5138;BME280;53959;53.626;11.410;2023-02-28T08:43:02;102707.28;;;0.59;70.51
5138;BME280;53959;53.626;11.410;2023-02-28T08:45:27;102726.50;;;0.79;70.16
5138;BME280;53959;53.626;11.410;2023-02-28T08:47:54;102724.00;;;0.80;69.82
5138;BME280;53959;53.626;11.410;2023-02-28T08:50:20;102725.28;;;0.90;69.73
5138;BME280;53959;53.626;11.410;2023-02-28T08:52:45;102724.91;;;1.00;69.38
5138;BME280;53959;53.626;11.410;2023-02-28T08:55:11;102730.00;;;1.16;69.82
5138;BME280;53959;53.626;11.410;2023-02-28T08:57:36;102722.50;;;1.24;69.18
5138;BME280;53959;53.626;11.410;2023-02-28T09:00:04;102725.34;;;1.29;69.51
5138;BME280;53959;53.626;11.410;2023-02-28T09:02:32;102725.84;;;1.39;68.75
5138;BME280;53959;53.626;11.410;2023-02-28T09:04:58;102728.09;;;1.51;68.40
5138;BME280;53959;53.626;11.410;2023-02-28T09:07:24;102724.09;;;1.59;67.70
5138;BME280;53959;53.626;11.410;2023-02-28T09:09:50;102735.97;;;1.72;68.23
5138;BME280;53959;53.626;11.410;2023-02-28T09:12:26;102728.31;;;1.77;66.99
5138;BME280;53959;53.626;11.410;2023-02-28T09:14:52;102722.66;;;1.87;67.06
5138;BME280;53959;53.626;11.410;2023-02-28T09:17:18;102733.41;;;1.93;67.32
5138;BME280;53959;53.626;11.410;2023-02-28T09:19:43;102734.81;;;2.06;66.22
5138;BME280;53959;53.626;11.410;2023-02-28T09:22:10;102733.72;;;2.01;65.74
5138;BME280;53959;53.626;11.410;2023-02-28T09:24:36;102738.59;;;2.12;65.32
5138;BME280;53959;53.626;11.410;2023-02-28T09:27:02;102741.59;;;2.22;65.50
5138;BME280;53959;53.626;11.410;2023-02-28T09:29:28;102733.00;;;2.26;66.06
5138;BME280;53959;53.626;11.410;2023-02-28T09:31:53;102738.63;;;2.56;65.29
5138;BME280;53959;53.626;11.410;2023-02-28T09:34:18;102738.88;;;2.62;63.85
5138;BME280;53959;53.626;11.410;2023-02-28T09:36:44;102734.47;;;2.61;64.19
5138;BME280;53959;53.626;11.410;2023-02-28T09:39:10;102735.09;;;2.55;64.34
5138;BME280;53959;53.626;11.410;2023-02-28T09:41:42;102736.84;;;2.77;62.38
5138;BME280;53959;53.626;11.410;2023-02-28T09:44:22;102744.19;;;2.86;60.37
5138;BME280;53959;53.626;11.410;2023-02-28T09:46:57;102737.25;;;2.88;60.08
5138;BME280;53959;53.626;11.410;2023-02-28T09:49:31;102737.72;;;3.00;58.60
5138;BME280;53959;53.626;11.410;2023-02-28T09:52:04;102744.66;;;2.98;59.49
5138;BME280;53959;53.626;11.410;2023-02-28T09:54:32;102740.94;;;2.93;59.87
5138;BME280;53959;53.626;11.410;2023-02-28T09:57:01;102743.47;;;3.12;58.99
5138;BME280;53959;53.626;11.410;2023-02-28T09:59:58;102737.41;;;3.15;59.88
5138;BME280;53959;53.626;11.410;2023-02-28T10:05:50;102741.47;;;3.29;58.62
5138;BME280;53959;53.626;11.410;2023-02-28T10:08:40;102737.22;;;3.33;57.92
5138;BME280;53959;53.626;11.410;2023-02-28T10:11:14;102750.03;;;3.48;58.42
5138;BME280;53959;53.626;11.410;2023-02-28T10:16:41;102729.13;;;3.51;56.55
5138;BME280;53959;53.626;11.410;2023-02-28T10:22:01;102733.81;;;3.59;55.84
5138;BME280;53959;53.626;11.410;2023-02-28T10:27:01;102734.50;;;3.79;55.58
5138;BME280;53959;53.626;11.410;2023-02-28T10:29:31;102740.25;;;3.93;55.13
5138;BME280;53959;53.626;11.410;2023-02-28T10:32:01;102729.94;;;3.74;54.83
5138;BME280;53959;53.626;11.410;2023-02-28T10:34:27;102732.94;;;3.84;55.97
5138;BME280;53959;53.626;11.410;2023-02-28T10:36:53;102736.97;;;3.75;56.83
5138;BME280;53959;53.626;11.410;2023-02-28T10:39:45;102736.25;;;4.04;56.67
5138;BME280;53959;53.626;11.410;2023-02-28T10:42:29;102744.03;;;4.01;56.03
5138;BME280;53959;53.626;11.410;2023-02-28T10:47:41;102737.63;;;4.19;55.29
5138;BME280;53959;53.626;11.410;2023-02-28T10:50:34;102739.91;;;4.09;55.27
5138;BME280;53959;53.626;11.410;2023-02-28T10:58:58;102738.09;;;4.07;53.97
5138;BME280;53959;53.626;11.410;2023-02-28T11:03:55;102739.78;;;4.05;54.81
5138;BME280;53959;53.626;11.410;2023-02-28T11:06:33;102738.25;;;4.11;54.74
5138;BME280;53959;53.626;11.410;2023-02-28T11:09:05;102737.50;;;4.41;53.48
5138;BME280;53959;53.626;11.410;2023-02-28T11:11:46;102731.91;;;4.32;53.02
5138;BME280;53959;53.626;11.410;2023-02-28T11:14:20;102734.47;;;4.03;52.74
5138;BME280;53959;53.626;11.410;2023-02-28T11:16:46;102729.41;;;4.09;52.87
5138;BME280;53959;53.626;11.410;2023-02-28T11:19:22;102723.50;;;3.91;52.43
5138;BME280;53959;53.626;11.410;2023-02-28T11:21:57;102735.25;;;4.01;52.73
5138;BME280;53959;53.626;11.410;2023-02-28T11:24:30;102743.41;;;4.08;52.72
5138;BME280;53959;53.626;11.410;2023-02-28T11:26:57;102728.13;;;4.51;53.40
5138;BME280;53959;53.626;11.410;2023-02-28T11:29:25;102725.16;;;4.67;54.79
5138;BME280;53959;53.626;11.410;2023-02-28T11:34:35;102725.19;;;4.69;53.63
5138;BME280;53959;53.626;11.410;2023-02-28T11:37:01;102722.31;;;4.61;53.68
5138;BME280;53959;53.626;11.410;2023-02-28T11:39:31;102721.94;;;4.49;53.62
5138;BME280;53959;53.626;11.410;2023-02-28T11:42:19;102717.81;;;4.57;54.12
5138;BME280;53959;53.626;11.410;2023-02-28T11:58:44;102701.41;;;5.56;52.03
5138;BME280;53959;53.626;11.410;2023-02-28T12:03:59;102695.34;;;5.58;53.11
5138;BME280;53959;53.626;11.410;2023-02-28T12:06:45;102684.16;;;5.35;53.83
5138;BME280;53959;53.626;11.410;2023-02-28T12:12:18;102680.47;;;5.60;52.13
5138;BME280;53959;53.626;11.410;2023-02-28T12:20:21;102677.88;;;5.64;51.63
5138;BME280;53959;53.626;11.410;2023-02-28T12:22:52;102665.84;;;5.73;51.88
5138;BME280;53959;53.626;11.410;2023-02-28T12:25:31;102653.88;;;5.20;50.65
5138;BME280;53959;53.626;11.410;2023-02-28T12:28:02;102654.22;;;5.65;50.41
5138;BME280;53959;53.626;11.410;2023-02-28T12:30:34;102650.31;;;5.84;50.70
5138;BME280;53959;53.626;11.410;2023-02-28T12:38:18;102637.91;;;6.15;49.06
5138;BME280;53959;53.626;11.410;2023-02-28T12:40:50;102641.28;;;6.09;48.99
5138;BME280;53959;53.626;11.410;2023-02-28T12:43:20;102638.44;;;6.38;48.84
5138;BME280;53959;53.626;11.410;2023-02-28T12:45:51;102632.69;;;6.55;48.54
5138;BME280;53959;53.626;11.410;2023-02-28T12:48:24;102624.72;;;6.54;48.60
5138;BME280;53959;53.626;11.410;2023-02-28T12:50:51;102626.72;;;6.25;48.49
5138;BME280;53959;53.626;11.410;2023-02-28T12:56:08;102626.63;;;6.22;48.44
5138;BME280;53959;53.626;11.410;2023-02-28T12:58:39;102625.78;;;6.23;48.39
5138;BME280;53959;53.626;11.410;2023-02-28T13:01:33;102631.03;;;6.61;47.61
5138;BME280;53959;53.626;11.410;2023-02-28T13:10:05;102622.78;;;6.86;44.99
5138;BME280;53959;53.626;11.410;2023-02-28T13:12:32;102633.47;;;6.92;44.61
5138;BME280;53959;53.626;11.410;2023-02-28T13:17:51;102635.97;;;6.45;43.63
5138;BME280;53959;53.626;11.410;2023-02-28T13:20:23;102631.34;;;6.74;43.55
5138;BME280;53959;53.626;11.410;2023-02-28T13:22:50;102625.94;;;7.12;42.43
5138;BME280;53959;53.626;11.410;2023-02-28T13:27:58;102634.91;;;8.22;40.72
5138;BME280;53959;53.626;11.410;2023-02-28T13:36:21;102622.66;;;11.13;33.50
5138;BME280;53959;53.626;11.410;2023-02-28T13:38:56;102622.63;;;11.07;31.12
5138;BME280;53959;53.626;11.410;2023-02-28T13:44:21;102626.91;;;10.72;30.94
5138;BME280;53959;53.626;11.410;2023-02-28T13:57:44;102612.09;;;11.52;30.28
5138;BME280;53959;53.626;11.410;2023-02-28T14:06:08;102617.88;;;8.62;36.67
5138;BME280;53959;53.626;11.410;2023-02-28T14:08:34;102616.66;;;8.37;37.64
5138;BME280;53959;53.626;11.410;2023-02-28T14:11:08;102619.06;;;7.70;37.68
5138;BME280;53959;53.626;11.410;2023-02-28T14:16:06;102614.50;;;7.60;37.24
5138;BME280;53959;53.626;11.410;2023-02-28T14:18:36;102613.84;;;7.23;38.20
5138;BME280;53959;53.626;11.410;2023-02-28T14:21:26;102622.84;;;7.35;38.89
5138;BME280;53959;53.626;11.410;2023-02-28T14:29:33;102603.84;;;7.09;40.00
5138;BME280;53959;53.626;11.410;2023-02-28T14:32:11;102613.75;;;6.75;41.06
5138;BME280;53959;53.626;11.410;2023-02-28T14:37:27;102619.56;;;6.59;41.98
5138;BME280;53959;53.626;11.410;2023-02-28T14:39:53;102614.31;;;6.62;42.03
5138;BME280;53959;53.626;11.410;2023-02-28T14:44:57;102610.06;;;6.67;42.25
5138;BME280;53959;53.626;11.410;2023-02-28T14:47:30;102606.53;;;6.66;41.80
5138;BME280;53959;53.626;11.410;2023-02-28T14:49:57;102601.13;;;6.62;41.86
5138;BME280;53959;53.626;11.410;2023-02-28T14:52:27;102596.13;;;6.75;41.81
5138;BME280;53959;53.626;11.410;2023-02-28T14:54:58;102593.19;;;6.60;41.92
5138;BME280;53959;53.626;11.410;2023-02-28T14:57:27;102589.03;;;6.73;41.48
5138;BME280;53959;53.626;11.410;2023-02-28T15:02:51;102585.66;;;6.39;42.51
5138;BME280;53959;53.626;11.410;2023-02-28T15:05:34;102585.28;;;6.62;42.08
5138;BME280;53959;53.626;11.410;2023-02-28T15:10:28;102569.41;;;6.59;42.17
5138;BME280;53959;53.626;11.410;2023-02-28T15:12:59;102575.16;;;6.41;42.45
5138;BME280;53959;53.626;11.410;2023-02-28T15:17:58;102566.44;;;6.45;40.66
5138;BME280;53959;53.626;11.410;2023-02-28T15:20:26;102559.72;;;6.20;41.71
5138;BME280;53959;53.626;11.410;2023-02-28T15:22:54;102558.91;;;6.21;42.83
5138;BME280;53959;53.626;11.410;2023-02-28T15:25:22;102553.47;;;6.55;42.35
5138;BME280;53959;53.626;11.410;2023-02-28T15:27:53;102557.41;;;6.76;42.23